Time;durP1;ratioP1;P1;durP2;ratioP2;P2;SDS_P1;SDS_P2;PMS_P1;PMS_P2;Temp;Humidity;BMP_temperature;BMP_pressure;BME280_temperature;BME280_humidity;BME280_pressure;Samples;Min_cycle;Max_cycle;Signal;HPM_P1;HPM_P2
2021/03/03 00:01:45;;;;;;;10.48;6.10;;;;;;;0.29;85.19;100317.59;1783478;80;21095;-67
2021/03/03 00:04:13;;;;;;;10.20;6.70;;;;;;;0.28;85.28;100313.73;1783397;80;21757;-68
2021/03/03 00:06:40;;;;;;;13.03;6.33;;;;;;;0.26;85.26;100315.41;1783174;78;21169;-67
2021/03/03 00:09:09;;;;;;;9.25;5.97;;;;;;;0.24;85.35;100314.52;1783514;80;21071;-68
2021/03/03 00:11:37;;;;;;;10.38;6.37;;;;;;;0.23;85.42;100322.62;1783404;80;21063;-67
2021/03/03 00:14:05;;;;;;;10.68;6.70;;;;;;;0.21;85.48;100319.59;1783456;80;21551;-67
2021/03/03 00:16:33;;;;;;;8.60;5.75;;;;;;;0.18;85.71;100319.16;1783521;80;21358;-67
2021/03/03 00:19:01;;;;;;;7.80;5.78;;;;;;;0.16;85.78;100312.30;1783361;79;21186;-68
2021/03/03 00:21:29;;;;;;;9.95;6.22;;;;;;;0.14;85.85;100311.41;1783383;80;21198;-67
2021/03/03 00:23:57;;;;;;;9.85;6.12;;;;;;;0.11;86.02;100312.23;1783395;80;21063;-67
2021/03/03 00:26:27;;;;;;;13.03;7.12;;;;;;;0.08;86.29;100311.31;1783412;80;21540;-67
2021/03/03 00:28:55;;;;;;;10.08;6.70;;;;;;;0.08;86.31;100313.88;1783419;80;21199;-67
2021/03/03 00:31:22;;;;;;;9.15;6.15;;;;;;;0.05;86.50;100321.50;1783363;80;21143;-68
2021/03/03 00:33:51;;;;;;;11.57;7.33;;;;;;;0.04;86.57;100310.41;1783393;80;21139;-68
2021/03/03 00:36:18;;;;;;;10.20;6.97;;;;;;;0.03;86.65;100318.05;1783383;80;21059;-68
2021/03/03 00:38:46;;;;;;;11.10;7.87;;;;;;;-0.01;86.87;100319.73;1783403;80;21023;-68
2021/03/03 00:41:14;;;;;;;10.40;7.40;;;;;;;-0.02;86.94;100320.16;1783380;80;23573;-68
2021/03/03 00:43:41;;;;;;;8.33;6.15;;;;;;;-0.05;87.02;100316.27;1783336;80;21631;-68
2021/03/03 00:46:11;;;;;;;11.50;7.15;;;;;;;-0.05;87.17;100323.08;1783322;80;21059;-68
2021/03/03 00:48:39;;;;;;;11.88;7.60;;;;;;;-0.05;87.37;100324.36;1783477;80;21067;-68
2021/03/03 00:51:06;;;;;;;13.48;7.33;;;;;;;-0.07;87.50;100317.94;1783430;80;21059;-68
2021/03/03 00:53:35;;;;;;;11.65;7.28;;;;;;;-0.08;87.56;100314.08;1783402;80;21556;-68
2021/03/03 00:56:04;;;;;;;10.98;7.10;;;;;;;-0.10;87.56;100316.61;1783295;80;21131;-68
2021/03/03 00:58:34;;;;;;;10.93;7.28;;;;;;;-0.11;87.64;100311.47;1783393;80;21096;-68
2021/03/03 01:01:02;;;;;;;10.93;7.15;;;;;;;-0.13;87.82;100316.56;1783351;79;21197;-68
2021/03/03 01:03:32;;;;;;;12.93;8.08;;;;;;;-0.15;87.81;100317.38;1783413;79;21547;-68
2021/03/03 01:06:10;;;;;;;11.75;7.15;;;;;;;-0.17;88.04;100319.91;1793407;78;21221;-68
2021/03/03 01:08:38;;;;;;;9.05;6.70;;;;;;;-0.18;88.03;100326.27;1815718;79;21083;-68
2021/03/03 01:11:06;;;;;;;10.65;7.30;;;;;;;-0.19;88.46;100328.37;1815725;79;21044;-69
2021/03/03 01:13:37;;;;;;;10.28;6.90;;;;;;;-0.20;88.45;100341.58;1815877;79;21139;-68
2021/03/03 01:16:06;;;;;;;13.25;7.40;;;;;;;-0.21;88.60;100334.78;1786472;79;21091;-68
2021/03/03 01:18:34;;;;;;;13.05;7.20;;;;;;;-0.20;88.58;100327.97;1815765;79;21524;-67
2021/03/03 01:21:04;;;;;;;9.73;6.35;;;;;;;-0.21;88.45;100330.08;1815784;79;21574;-67
2021/03/03 01:23:31;;;;;;;12.58;7.78;;;;;;;-0.25;88.53;100339.81;1815859;79;21122;-67
2021/03/03 01:25:59;;;;;;;10.40;7.22;;;;;;;-0.28;88.66;100335.92;1815705;78;21130;-67
2021/03/03 01:28:29;;;;;;;9.40;6.80;;;;;;;-0.29;88.73;100341.87;1815809;79;21035;-67
2021/03/03 01:30:56;;;;;;;9.18;6.92;;;;;;;-0.31;88.76;100338.01;1815760;79;21365;-67
2021/03/03 01:33:29;;;;;;;9.98;7.17;;;;;;;-0.31;88.93;100340.98;1815682;79;21107;-67
2021/03/03 01:35:58;;;;;;;9.95;6.87;;;;;;;-0.32;88.99;100346.92;1815940;78;21083;-67
2021/03/03 01:38:26;;;;;;;10.13;7.10;;;;;;;-0.36;89.04;100343.04;1815725;78;21051;-67
2021/03/03 01:40:55;;;;;;;10.30;6.72;;;;;;;-0.36;89.10;100344.73;1815888;79;21551;-68
2021/03/03 01:43:23;;;;;;;9.05;6.55;;;;;;;-0.37;89.13;100345.16;1815748;79;21356;-67
2021/03/03 01:45:51;;;;;;;11.45;6.83;;;;;;;-0.39;89.20;100344.27;1815710;78;21138;-68
2021/03/03 01:48:19;;;;;;;10.40;6.87;;;;;;;-0.40;89.29;100348.93;1815742;79;21088;-67
2021/03/03 01:50:47;;;;;;;9.33;6.45;;;;;;;-0.42;89.27;100345.52;1815695;79;21055;-67
2021/03/03 01:53:16;;;;;;;8.70;6.40;;;;;;;-0.42;89.30;100348.48;1815958;79;21052;-67
2021/03/03 01:55:43;;;;;;;10.03;6.28;;;;;;;-0.43;89.35;100348.05;1815867;78;21202;-67
2021/03/03 01:58:12;;;;;;;11.55;6.42;;;;;;;-0.45;89.53;100354.82;1815892;79;21147;-67
2021/03/03 02:00:40;;;;;;;8.98;6.40;;;;;;;-0.46;89.75;100351.41;1815913;79;21043;-67
2021/03/03 02:03:09;;;;;;;10.53;6.25;;;;;;;-0.46;89.84;100358.21;1815885;79;21528;-68
2021/03/03 02:05:37;;;;;;;9.63;6.10;;;;;;;-0.47;89.81;100358.63;1815720;79;21185;-68
2021/03/03 02:08:22;;;;;;;11.10;6.80;;;;;;;-0.48;89.84;100363.71;1811144;79;21326;-67
2021/03/03 02:11:17;;;;;;;9.95;6.22;;;;;;;-0.50;89.98;100361.12;1811025;79;21036;-67
2021/03/03 02:13:56;;;;;;;8.28;5.97;;;;;;;-0.50;90.01;100365.38;1810995;78;21111;-67
2021/03/03 02:16:23;;;;;;;8.35;5.83;;;;;;;-0.50;90.00;100365.38;1810510;79;21127;-67
2021/03/03 02:18:51;;;;;;;9.40;6.55;;;;;;;-0.53;90.13;100359.79;1811039;79;21139;-67
2021/03/03 02:21:38;;;;;;;8.48;6.12;;;;;;;-0.54;90.18;100355.52;1811212;79;21465;-67
2021/03/03 02:24:22;;;;;;;8.60;6.25;;;;;;;-0.56;90.11;100363.98;1811065;79;21544;-68
2021/03/03 02:26:51;;;;;;;8.65;5.92;;;;;;;-0.58;90.09;100363.95;1786272;79;21044;-68
2021/03/03 02:29:27;;;;;;;9.45;6.50;;;;;;;-0.59;90.27;100362.64;1786875;79;21072;-68
2021/03/03 02:31:55;;;;;;;10.23;7.25;;;;;;;-0.60;90.42;100365.62;1811158;79;21130;-68
2021/03/03 02:34:26;;;;;;;10.28;6.35;;;;;;;-0.60;90.30;100366.06;1810974;79;21280;-69
2021/03/03 02:36:55;;;;;;;9.13;6.15;;;;;;;-0.61;90.46;100363.06;1811042;79;21252;-68
2021/03/03 02:39:24;;;;;;;12.93;6.90;;;;;;;-0.60;90.65;100365.62;1810996;79;21103;-68
2021/03/03 02:41:51;;;;;;;9.55;6.17;;;;;;;-0.60;90.61;100366.89;1811015;78;21151;-68
2021/03/03 02:44:18;;;;;;;9.23;6.58;;;;;;;-0.61;90.51;100371.59;1811019;79;21068;-68
2021/03/03 02:46:46;;;;;;;8.48;6.25;;;;;;;-0.62;90.49;100367.31;1786578;79;21221;-68
2021/03/03 02:49:19;;;;;;;8.33;6.15;;;;;;;-0.62;90.59;100363.89;1810920;79;21118;-68
2021/03/03 02:51:47;;;;;;;8.45;6.22;;;;;;;-0.63;90.63;100374.53;1811161;79;21079;-68
2021/03/03 02:54:15;;;;;;;9.70;6.78;;;;;;;-0.63;90.77;100374.53;1811017;78;21979;-69
2021/03/03 02:56:43;;;;;;;10.60;6.72;;;;;;;-0.63;90.72;100375.81;1811101;79;21515;-69
2021/03/03 02:59:45;;;;;;;11.50;6.75;;;;;;;-0.63;90.72;100375.81;1810995;79;21372;-68
2021/03/03 03:02:14;;;;;;;12.68;7.65;;;;;;;-0.63;90.79;100374.53;1810910;79;21148;-68
2021/03/03 03:05:03;;;;;;;10.98;7.15;;;;;;;-0.63;90.80;100373.67;1811016;79;21055;-68
2021/03/03 03:07:50;;;;;;;10.65;6.58;;;;;;;-0.65;90.79;100378.75;1791838;79;21064;-69
2021/03/03 03:10:36;;;;;;;12.58;7.95;;;;;;;-0.65;90.83;100380.44;1815933;79;21135;-68
2021/03/03 03:13:22;;;;;;;12.05;7.47;;;;;;;-0.67;90.76;100379.55;1815993;79;21582;-67
2021/03/03 03:16:07;;;;;;;9.40;6.72;;;;;;;-0.71;90.82;100378.21;1815850;79;21083;-67
2021/03/03 03:18:39;;;;;;;9.65;6.15;;;;;;;-0.73;90.91;100385.40;1786946;79;21532;-67
2021/03/03 03:21:07;;;;;;;11.75;6.83;;;;;;;-0.76;90.85;100390.03;1815207;78;21087;-67
2021/03/03 03:23:35;;;;;;;10.08;6.75;;;;;;;-0.76;91.10;100391.72;1815947;79;21126;-67
2021/03/03 03:26:03;;;;;;;10.48;6.50;;;;;;;-0.77;91.14;100395.97;1815788;79;21202;-66
2021/03/03 03:28:31;;;;;;;11.15;7.30;;;;;;;-0.78;91.05;100393.38;1787063;79;21146;-67
2021/03/03 03:30:59;;;;;;;8.40;6.00;;;;;;;-0.81;91.04;100398.05;1786970;79;21559;-67
2021/03/03 03:33:27;;;;;;;8.73;5.60;;;;;;;-0.81;91.04;100401.88;1761605;79;21071;-67
2021/03/03 03:35:54;;;;;;;8.43;6.47;;;;;;;-0.83;91.15;100400.13;1815838;78;21106;-67
2021/03/03 03:38:22;;;;;;;10.18;6.97;;;;;;;-0.84;91.26;100399.26;1815809;79;21206;-67
2021/03/03 03:40:49;;;;;;;8.55;6.03;;;;;;;-0.84;91.25;100400.95;1815774;79;21051;-67
2021/03/03 03:43:16;;;;;;;9.15;6.62;;;;;;;-0.85;91.24;100408.16;1786638;79;21035;-67
2021/03/03 03:45:44;;;;;;;13.18;7.37;;;;;;;-0.87;91.32;100405.58;1815787;79;21151;-67
2021/03/03 03:48:12;;;;;;;14.60;7.08;;;;;;;-0.87;91.40;100413.24;1815842;79;21162;-66
2021/03/03 03:50:41;;;;;;;8.40;6.30;;;;;;;-0.87;91.42;100414.52;1815829;79;21366;-67
2021/03/03 03:53:10;;;;;;;7.35;5.70;;;;;;;-0.88;91.47;100417.05;1815763;79;21068;-67
2021/03/03 03:55:38;;;;;;;9.13;6.45;;;;;;;-0.87;91.51;100422.59;1815761;78;21488;-67
2021/03/03 03:58:07;;;;;;;9.85;6.83;;;;;;;-0.89;91.65;100418.73;1815811;79;21099;-67
2021/03/03 04:00:35;;;;;;;9.68;6.92;;;;;;;-0.89;91.66;100420.01;1815924;79;21500;-67
2021/03/03 04:03:03;;;;;;;7.15;5.83;;;;;;;-0.86;91.79;100425.19;1815807;79;21328;-67
2021/03/03 04:05:31;;;;;;;8.95;6.17;;;;;;;-0.85;91.89;100429.46;1815702;79;21063;-67
2021/03/03 04:07:58;;;;;;;11.15;6.65;;;;;;;-0.81;92.01;100422.73;1815683;78;21036;-66
2021/03/03 04:10:28;;;;;;;9.50;6.42;;;;;;;-0.78;92.03;100430.00;1815745;79;21047;-66
2021/03/03 04:12:55;;;;;;;10.63;6.85;;;;;;;-0.73;92.03;100427.55;1815827;79;21063;-67
2021/03/03 04:15:24;;;;;;;8.08;6.60;;;;;;;-0.67;91.96;100430.64;1815794;79;21353;-66
2021/03/03 04:17:54;;;;;;;11.25;7.20;;;;;;;-0.64;91.85;100426.87;1786238;79;21158;-66
2021/03/03 04:20:22;;;;;;;11.25;7.65;;;;;;;-0.61;91.85;100437.16;1815822;79;21110;-67
2021/03/03 04:22:50;;;;;;;9.85;7.62;;;;;;;-0.56;91.87;100438.08;1815750;79;21503;-67
2021/03/03 04:25:18;;;;;;;10.53;6.60;;;;;;;-0.49;91.68;100433.54;1815820;79;21047;-67
2021/03/03 04:27:46;;;;;;;10.98;6.72;;;;;;;-0.44;91.55;100439.60;1815750;79;21211;-66
2021/03/03 04:30:16;;;;;;;10.82;6.97;;;;;;;-0.40;91.52;100443.49;1815734;79;21110;-66
2021/03/03 04:32:46;;;;;;;11.85;7.08;;;;;;;-0.35;91.46;100447.00;1814316;79;21483;-67
2021/03/03 04:35:14;;;;;;;10.30;7.20;;;;;;;-0.28;91.30;100446.70;1815756;79;21114;-68
2021/03/03 04:37:42;;;;;;;13.00;7.80;;;;;;;-0.22;91.04;100458.33;1815861;79;21590;-66
2021/03/03 04:40:11;;;;;;;10.18;7.28;;;;;;;-0.17;90.96;100467.33;1815801;79;21500;-66
2021/03/03 04:42:39;;;;;;;8.58;6.37;;;;;;;-0.14;90.81;100454.19;1815747;79;21076;-67
2021/03/03 04:45:08;;;;;;;10.48;6.70;;;;;;;-0.09;90.53;100457.70;1815759;78;21072;-67
2021/03/03 04:47:37;;;;;;;8.65;6.78;;;;;;;-0.05;90.40;100467.14;1815761;79;21138;-67
2021/03/03 04:50:07;;;;;;;8.68;6.17;;;;;;;0.00;90.24;100469.80;1815740;79;21102;-68
2021/03/03 04:52:35;;;;;;;7.97;6.35;;;;;;;0.04;90.03;100470.67;1815776;79;21371;-66
2021/03/03 04:55:05;;;;;;;7.55;5.75;;;;;;;0.08;89.86;100475.88;1815754;78;21560;-67
2021/03/03 04:57:33;;;;;;;10.35;7.30;;;;;;;0.11;89.46;100471.23;1815744;79;21106;-66
2021/03/03 05:00:05;;;;;;;6.12;4.75;;;;;;;0.15;89.26;100484.11;1815768;79;21139;-67
2021/03/03 05:02:32;;;;;;;7.10;5.60;;;;;;;0.18;88.88;100488.00;1815775;79;21162;-66
2021/03/03 05:04:59;;;;;;;7.65;5.62;;;;;;;0.19;88.07;100485.03;1815783;79;21968;-66
2021/03/03 05:07:27;;;;;;;7.22;5.30;;;;;;;0.20;88.26;100489.31;1815584;79;21079;-67
2021/03/03 05:09:56;;;;;;;8.98;5.62;;;;;;;0.22;88.22;100486.33;1815763;79;21107;-67
2021/03/03 05:12:24;;;;;;;7.20;5.28;;;;;;;0.24;87.89;100488.08;1815726;79;21131;-67
2021/03/03 05:14:52;;;;;;;8.03;5.65;;;;;;;0.26;87.49;100485.55;1815748;79;21150;-68
2021/03/03 05:17:21;;;;;;;6.83;5.28;;;;;;;0.27;87.38;100497.09;1815762;79;21130;-67
2021/03/03 05:19:49;;;;;;;6.03;5.12;;;;;;;0.29;87.33;100495.42;1815840;79;21492;-67
2021/03/03 05:22:17;;;;;;;7.37;5.00;;;;;;;0.31;87.09;100514.64;1815750;79;21059;-68
2021/03/03 05:24:45;;;;;;;6.97;5.35;;;;;;;0.32;86.85;100513.38;1815736;79;21131;-67
2021/03/03 05:27:12;;;;;;;7.25;5.20;;;;;;;0.34;86.78;100511.72;1815830;78;21138;-67
2021/03/03 05:29:40;;;;;;;6.67;5.42;;;;;;;0.36;86.65;100523.26;1815888;78;23590;-68
2021/03/03 05:32:08;;;;;;;7.35;5.10;;;;;;;0.38;86.59;100525.43;1815853;79;21091;-68
2021/03/03 05:34:37;;;;;;;5.80;4.70;;;;;;;0.39;85.95;100522.03;1815946;79;21052;-67
2021/03/03 05:37:04;;;;;;;6.70;4.95;;;;;;;0.40;85.50;100531.85;1815897;79;21135;-67
2021/03/03 05:39:32;;;;;;;6.47;4.97;;;;;;;0.41;85.53;100529.70;1815905;79;21130;-67
2021/03/03 05:42:02;;;;;;;7.30;5.67;;;;;;;0.41;85.33;100549.77;1815882;79;21400;-67
2021/03/03 05:44:30;;;;;;;5.45;4.55;;;;;;;0.41;85.49;100534.41;1815879;79;21040;-67
2021/03/03 05:46:57;;;;;;;7.65;4.85;;;;;;;0.46;85.17;100548.15;1815859;79;21039;-67
2021/03/03 05:49:26;;;;;;;5.85;4.85;;;;;;;0.47;84.87;100543.48;1815910;79;21039;-67
2021/03/03 05:51:54;;;;;;;6.60;4.25;;;;;;;0.49;84.69;100562.28;1815907;79;21111;-68
2021/03/03 05:54:22;;;;;;;6.03;4.37;;;;;;;0.50;84.50;100551.20;1815943;78;22147;-67
2021/03/03 05:56:50;;;;;;;6.53;4.67;;;;;;;0.53;84.26;100544.86;1815894;79;21192;-68
2021/03/03 05:59:17;;;;;;;6.28;4.92;;;;;;;0.56;84.43;100556.86;1815870;79;21500;-68
2021/03/03 06:01:45;;;;;;;7.87;5.03;;;;;;;0.59;84.23;100554.34;1815842;79;21102;-69
2021/03/03 06:04:15;;;;;;;11.57;5.15;;;;;;;0.61;83.87;100548.39;1814160;79;21139;-68
2021/03/03 06:06:43;;;;;;;7.00;4.45;;;;;;;0.64;83.68;100562.52;1815871;79;21204;-67
2021/03/03 06:09:11;;;;;;;7.75;5.22;;;;;;;0.66;83.73;100553.17;1813917;79;21571;-69
2021/03/03 06:11:39;;;;;;;9.08;5.08;;;;;;;0.73;83.69;100563.10;1814104;79;21548;-70
2021/03/03 06:14:07;;;;;;;8.78;4.97;;;;;;;0.79;83.67;100562.34;1814871;79;21056;-67
2021/03/03 06:16:35;;;;;;;7.78;5.28;;;;;;;0.82;82.94;100568.77;1815839;79;21135;-65
2021/03/03 06:19:03;;;;;;;7.00;4.53;;;;;;;0.85;82.78;100579.92;1815818;79;21523;-63
2021/03/03 06:21:32;;;;;;;6.80;5.17;;;;;;;0.87;82.75;100574.41;1786703;79;21508;-65
2021/03/03 06:24:09;;;;;;;9.20;6.12;;;;;;;0.90;82.81;100577.02;1815732;79;21047;-66
2021/03/03 06:26:54;;;;;;;7.55;5.35;;;;;;;0.96;82.71;100573.70;1815607;78;21452;-66
2021/03/03 06:29:29;;;;;;;5.87;4.15;;;;;;;1.00;82.63;100571.18;1815732;78;21527;-64
2021/03/03 06:32:04;;;;;;;6.92;4.72;;;;;;;1.07;82.41;100563.17;1815842;79;21459;-65
2021/03/03 06:34:33;;;;;;;5.28;3.83;;;;;;;1.14;82.13;100561.57;1813077;79;21182;-65
2021/03/03 06:37:03;;;;;;;6.33;4.87;;;;;;;1.18;81.65;100559.50;1786951;79;21063;-64
2021/03/03 06:39:37;;;;;;;5.97;5.08;;;;;;;1.20;81.27;100562.95;1815805;79;21594;-65
2021/03/03 06:42:07;;;;;;;6.50;4.37;;;;;;;1.20;81.07;100563.77;1816006;79;21094;-64
2021/03/03 06:44:54;;;;;;;6.40;4.83;;;;;;;1.19;81.17;100580.02;1815888;79;22253;-65
2021/03/03 06:47:23;;;;;;;7.17;4.80;;;;;;;1.20;80.99;100577.04;1815743;78;21135;-64
2021/03/03 06:49:52;;;;;;;9.05;5.60;;;;;;;1.20;80.82;100572.74;1815875;78;21441;-68
2021/03/03 06:52:40;;;;;;;7.28;4.78;;;;;;;1.23;80.75;100566.80;1782533;80;21633;-63
2021/03/03 06:55:09;;;;;;;6.10;3.98;;;;;;;1.25;80.28;100566.41;1783613;79;21165;-65
2021/03/03 06:57:37;;;;;;;5.30;3.87;;;;;;;1.25;80.14;100569.83;1783658;80;21976;-63
2021/03/03 07:00:11;;;;;;;5.17;4.42;;;;;;;1.26;80.20;100561.72;1783557;80;21118;-64
2021/03/03 07:02:38;;;;;;;6.37;3.87;;;;;;;1.26;80.04;100564.28;1783693;80;21060;-63
2021/03/03 07:05:11;;;;;;;6.87;4.50;;;;;;;1.25;79.91;100559.58;1755972;80;21124;-64
2021/03/03 07:07:39;;;;;;;7.58;4.70;;;;;;;1.26;79.87;100557.88;1783497;80;21107;-63
2021/03/03 07:10:09;;;;;;;5.62;3.92;;;;;;;1.27;80.01;100558.32;1784700;79;21522;-64
2021/03/03 07:12:48;;;;;;;6.22;4.25;;;;;;;1.30;79.88;100555.80;1812647;79;21060;-63
2021/03/03 07:15:16;;;;;;;6.67;4.78;;;;;;;1.32;79.71;100558.83;1809864;78;21060;-63
2021/03/03 07:17:45;;;;;;;7.67;4.87;;;;;;;1.37;79.57;100558.90;1809443;79;21120;-65
2021/03/03 07:20:16;;;;;;;6.33;4.28;;;;;;;1.44;79.70;100561.96;1809515;78;21076;-64
2021/03/03 07:22:52;;;;;;;5.20;4.25;;;;;;;1.51;79.16;100562.91;1809765;79;21486;-64
2021/03/03 07:25:20;;;;;;;7.05;4.20;;;;;;;1.54;78.98;100569.36;1809768;79;21048;-64
2021/03/03 07:27:49;;;;;;;6.85;4.40;;;;;;;1.55;78.41;100569.39;1809782;79;21088;-63
2021/03/03 07:30:20;;;;;;;5.10;4.20;;;;;;;1.56;78.51;100568.55;1809712;79;21481;-64
2021/03/03 07:32:48;;;;;;;8.00;4.87;;;;;;;1.59;78.64;100572.44;1809714;79;21055;-65
2021/03/03 07:35:18;;;;;;;5.30;4.17;;;;;;;1.65;78.57;100556.23;1775269;80;22256;-64
2021/03/03 07:37:55;;;;;;;5.95;4.42;;;;;;;1.73;78.27;100566.17;1780983;80;21067;-65
2021/03/03 07:40:29;;;;;;;7.72;4.70;;;;;;;1.79;78.26;100574.38;1782482;79;21622;-62
2021/03/03 07:43:00;;;;;;;5.42;4.28;;;;;;;1.85;77.80;100573.14;1783329;80;21604;-65
2021/03/03 07:45:36;;;;;;;6.33;4.17;;;;;;;1.89;77.25;100566.78;1783582;80;21055;-63
2021/03/03 07:48:07;;;;;;;7.00;3.77;;;;;;;1.89;76.71;100580.89;1783657;80;22268;-64
2021/03/03 07:50:35;;;;;;;5.12;4.25;;;;;;;1.85;76.48;100566.30;1756030;80;21099;-64
2021/03/03 07:53:04;;;;;;;6.50;4.25;;;;;;;1.85;76.63;100566.30;1755664;80;21127;-63
2021/03/03 07:55:33;;;;;;;5.47;3.83;;;;;;;1.86;76.50;100569.73;1783465;79;21039;-65
2021/03/03 07:58:01;;;;;;;6.45;4.20;;;;;;;1.89;76.62;100571.91;1783411;80;21587;-64
2021/03/03 08:00:34;;;;;;;7.83;4.03;;;;;;;1.94;76.44;100566.84;1783476;80;21067;-64
2021/03/03 08:03:05;;;;;;;8.95;4.30;;;;;;;2.02;76.47;100565.20;1783267;80;21120;-65
2021/03/03 08:05:37;;;;;;;4.55;3.83;;;;;;;2.12;76.30;100572.58;1777224;80;21547;-63
2021/03/03 08:08:25;;;;;;;6.28;4.50;;;;;;;2.20;76.09;100574.36;1757144;80;21650;-64
2021/03/03 08:11:05;;;;;;;6.53;4.08;;;;;;;2.26;75.99;100575.72;1786938;80;21114;-64
2021/03/03 08:13:35;;;;;;;4.58;3.70;;;;;;;2.33;75.15;100572.80;1786936;80;21164;-63
2021/03/03 08:16:06;;;;;;;6.37;4.05;;;;;;;2.36;74.80;100573.69;1786858;80;21150;-66
2021/03/03 08:18:38;;;;;;;6.03;4.00;;;;;;;2.40;75.03;100574.55;1786771;80;21143;-65
2021/03/03 08:21:10;;;;;;;;;;;;;;;2.48;75.01;100570.78;1789568;80;21071;-64
2021/03/03 08:24:00;;;;;;;4.42;3.65;;;;;;;2.57;74.78;100577.30;1786932;80;20226;-63
2021/03/03 08:26:32;;;;;;;4.62;3.83;;;;;;;2.69;74.45;100575.68;1786789;80;21368;-64
2021/03/03 08:29:22;;;;;;;6.87;4.97;;;;;;;2.81;73.82;100573.61;1787172;80;21573;-63
2021/03/03 08:31:50;;;;;;;8.88;5.22;;;;;;;2.95;73.74;100573.73;1787023;80;21456;-65
2021/03/03 08:34:19;;;;;;;12.20;7.00;;;;;;;3.11;73.73;100575.13;1786877;80;21500;-64
2021/03/03 08:36:49;;;;;;;7.40;5.45;;;;;;;3.27;73.26;100576.07;1786864;80;21079;-66
2021/03/03 08:39:22;;;;;;;6.95;6.00;;;;;;;3.41;72.75;100578.70;1786695;80;21656;-65
2021/03/03 08:41:51;;;;;;;6.72;5.67;;;;;;;3.54;72.20;100585.66;1786786;80;21075;-65
2021/03/03 08:44:19;;;;;;;15.65;10.63;;;;;;;3.60;71.68;100588.23;1786826;80;21071;-64
2021/03/03 08:46:49;;;;;;;10.03;8.50;;;;;;;3.68;71.36;100588.28;1786778;80;21492;-64
2021/03/03 08:49:27;;;;;;;8.75;6.90;;;;;;;3.71;71.06;100594.30;1786790;80;21636;-63
2021/03/03 08:52:06;;;;;;;7.33;5.60;;;;;;;3.76;70.91;100595.19;1786898;80;21371;-63
2021/03/03 08:54:46;;;;;;;9.80;7.20;;;;;;;3.81;70.24;100598.61;1785048;79;21154;-65
2021/03/03 08:57:29;;;;;;;7.92;5.85;;;;;;;3.83;70.31;100597.77;1786533;80;21554;-64
2021/03/03 09:00:08;;;;;;;8.65;6.40;;;;;;;3.92;70.06;100590.09;1867857;75;22634;-64
2021/03/03 09:02:38;;;;;;;9.73;6.15;;;;;;;3.90;69.42;100597.80;1808545;79;21018;-65
2021/03/03 09:05:10;;;;;;;9.73;6.58;;;;;;;3.91;69.72;100598.23;1808363;78;21179;-64
2021/03/03 09:07:38;;;;;;;10.90;6.83;;;;;;;4.00;69.83;100600.83;1808264;78;21034;-63
2021/03/03 09:10:19;;;;;;;9.30;6.37;;;;;;;4.06;69.28;100599.98;1808390;79;21074;-65
2021/03/03 09:12:47;;;;;;;7.47;5.05;;;;;;;4.11;68.59;100602.16;1808433;78;21132;-65
2021/03/03 09:15:16;;;;;;;7.72;6.00;;;;;;;4.13;68.07;100604.31;1808455;78;21037;-66
2021/03/03 09:17:46;;;;;;;8.25;5.47;;;;;;;4.12;68.31;100603.88;1811570;78;21371;-65
2021/03/03 09:20:17;;;;;;;6.08;4.42;;;;;;;4.12;67.83;100605.17;1840157;78;21181;-63
2021/03/03 09:22:47;;;;;;;6.22;5.00;;;;;;;4.04;67.73;100605.13;1841161;77;21060;-63
2021/03/03 09:25:20;;;;;;;5.45;4.62;;;;;;;4.06;67.96;100609.00;1838315;78;21196;-64
2021/03/03 09:27:58;;;;;;;6.08;4.90;;;;;;;4.11;67.60;100608.17;1839685;78;21085;-64
2021/03/03 09:30:27;;;;;;;5.22;4.12;;;;;;;4.12;67.91;100604.73;1757803;81;21394;-64
2021/03/03 09:32:55;;;;;;;10.23;5.20;;;;;;;4.17;68.25;100609.05;1780309;80;21099;-64
2021/03/03 09:35:28;;;;;;;5.95;4.37;;;;;;;4.21;67.54;100610.75;1780362;80;21071;-67
2021/03/03 09:37:58;;;;;;;9.45;6.25;;;;;;;4.24;66.87;100616.77;1757812;81;21138;-64
2021/03/03 09:40:30;;;;;;;6.90;5.20;;;;;;;4.27;66.97;100612.06;1780255;80;21123;-64
2021/03/03 09:42:59;;;;;;;6.12;4.60;;;;;;;4.33;66.91;100605.64;1777919;79;21645;-65
2021/03/03 09:45:27;;;;;;;8.05;5.87;;;;;;;4.40;66.77;100609.93;1781388;80;21165;-62
2021/03/03 09:47:57;;;;;;;9.23;5.37;;;;;;;4.47;66.84;100603.94;1781458;80;21134;-64
2021/03/03 09:50:30;;;;;;;6.97;5.00;;;;;;;4.53;66.48;100605.67;1782058;80;21110;-65
2021/03/03 09:52:59;;;;;;;10.28;4.40;;;;;;;4.58;65.61;100609.13;1781327;79;21169;-66
2021/03/03 09:55:35;;;;;;;6.75;3.83;;;;;;;4.59;65.18;100597.53;1743980;80;21382;-65
2021/03/03 09:58:04;;;;;;;5.75;3.83;;;;;;;4.56;65.16;100607.83;1720959;81;21109;-66
2021/03/03 10:00:39;;;;;;;5.70;3.70;;;;;;;4.56;65.17;100610.84;1729109;83;21470;-65
2021/03/03 10:03:12;;;;;;;9.88;3.55;;;;;;;4.54;64.52;100599.67;1729228;83;21136;-64
2021/03/03 10:05:40;;;;;;;6.33;3.80;;;;;;;4.55;64.43;100602.25;1721380;83;21142;-65
2021/03/03 10:08:30;;;;;;;4.37;3.08;;;;;;;4.61;64.53;100589.34;1729187;83;21398;-65
2021/03/03 10:11:00;;;;;;;5.80;3.67;;;;;;;4.64;64.01;100587.20;1699595;83;21151;-64
2021/03/03 10:13:29;;;;;;;6.47;3.87;;;;;;;4.58;64.43;100588.52;1691727;84;21094;-64
2021/03/03 10:15:57;;;;;;;6.92;4.33;;;;;;;4.53;64.26;100581.20;1691789;84;21070;-65
2021/03/03 10:18:25;;;;;;;6.33;4.35;;;;;;;4.55;64.56;100585.93;1691755;83;21090;-64
2021/03/03 10:20:56;;;;;;;7.15;4.53;;;;;;;4.61;64.47;100580.33;1691750;84;22391;-66
2021/03/03 10:23:27;;;;;;;12.10;4.37;;;;;;;4.66;65.00;100579.05;1691648;84;21145;-65
2021/03/03 10:26:07;;;;;;;7.47;4.90;;;;;;;4.72;64.99;100579.06;1691200;84;21650;-67
2021/03/03 10:28:37;;;;;;;7.30;5.45;;;;;;;4.69;64.52;100580.34;1691714;84;21070;-66
2021/03/03 10:31:08;;;;;;;9.98;7.40;;;;;;;4.65;64.92;100574.75;1691712;83;21070;-66
2021/03/03 10:33:40;;;;;;;8.55;5.95;;;;;;;4.75;65.18;100576.48;1691645;83;21402;-65
2021/03/03 10:36:19;;;;;;;10.55;5.05;;;;;;;4.89;64.33;100568.73;1691683;84;21177;-67
2021/03/03 10:38:56;;;;;;;6.67;4.25;;;;;;;4.97;63.71;100570.45;1691563;83;21228;-65
2021/03/03 10:41:28;;;;;;;8.63;4.40;;;;;;;4.97;63.69;100569.17;1691466;83;21204;-65
2021/03/03 10:43:57;;;;;;;4.95;4.15;;;;;;;5.01;63.46;100564.84;1691636;83;21093;-65
2021/03/03 10:46:26;;;;;;;6.35;4.72;;;;;;;5.12;62.95;100560.55;1691634;83;23535;-66
2021/03/03 10:48:56;;;;;;;6.30;4.28;;;;;;;5.23;63.28;100563.08;1691655;84;21154;-66
2021/03/03 10:51:36;;;;;;;11.15;4.15;;;;;;;5.30;62.90;100559.64;1687511;84;21581;-65
2021/03/03 10:54:05;;;;;;;11.18;4.70;;;;;;;5.32;62.94;100566.94;1692395;83;21173;-64
2021/03/03 10:56:41;;;;;;;10.80;4.15;;;;;;;5.25;63.00;100564.80;1720656;83;21118;-65
2021/03/03 10:59:27;;;;;;;11.90;5.40;;;;;;;5.20;62.40;100558.79;1720417;82;21408;-66
2021/03/03 11:01:58;;;;;;;9.65;4.67;;;;;;;5.10;62.40;100565.70;1719782;82;21518;-64
2021/03/03 11:04:42;;;;;;;6.80;4.28;;;;;;;5.03;62.28;100562.70;1720664;83;21090;-66
2021/03/03 11:07:11;;;;;;;8.98;4.45;;;;;;;5.05;62.47;100560.97;1720543;83;21502;-65
2021/03/03 11:09:39;;;;;;;5.70;3.90;;;;;;;5.13;62.65;100558.39;1722907;82;21478;-65
2021/03/03 11:12:08;;;;;;;5.37;4.00;;;;;;;5.18;62.14;100556.67;1725999;83;21218;-65
2021/03/03 11:14:36;;;;;;;9.78;3.87;;;;;;;5.13;61.76;100559.25;1725970;81;21109;-65
2021/03/03 11:17:06;;;;;;;10.45;3.55;;;;;;;5.09;62.07;100557.53;1726080;83;21122;-65
2021/03/03 11:19:36;;;;;;;5.20;4.08;;;;;;;5.12;61.88;100557.53;1725909;82;21075;-66
2021/03/03 11:22:06;;;;;;;10.63;4.55;;;;;;;5.19;62.05;100555.81;1725956;83;21142;-66
2021/03/03 11:24:33;;;;;;;7.40;5.05;;;;;;;5.21;61.62;100551.48;1725998;81;21200;-66
2021/03/03 11:27:02;;;;;;;10.18;6.40;;;;;;;5.18;61.42;100550.22;1725931;83;21835;-66
2021/03/03 11:29:32;;;;;;;10.30;4.17;;;;;;;5.23;61.85;100545.89;1725985;82;21527;-67
2021/03/03 11:32:02;;;;;;;12.20;7.62;;;;;;;5.30;62.39;100539.86;1723196;81;21197;-66
2021/03/03 11:34:32;;;;;;;18.25;8.50;;;;;;;5.37;62.23;100539.42;1726041;83;21519;-66
2021/03/03 11:37:00;;;;;;;12.60;6.40;;;;;;;5.41;62.14;100541.96;1726087;83;21372;-66
2021/03/03 11:39:28;;;;;;;14.05;7.20;;;;;;;5.42;61.53;100535.94;1725999;81;21530;-66
2021/03/03 11:41:57;;;;;;;12.88;7.15;;;;;;;5.36;62.38;100537.70;1725996;81;21119;-65
2021/03/03 11:44:26;;;;;;;6.40;3.72;;;;;;;5.31;62.96;100535.56;1725882;82;21094;-66
2021/03/03 11:46:57;;;;;;;8.40;5.30;;;;;;;5.26;62.66;100540.73;1726078;83;22390;-67